Powderville, Montana
Current Conditions -  °F | °C
As of 11:58 PM on Saturday 22 Nov 2014 (Local Time) from KBHK Reporting Station
Overcast Overcast  
Wind Chill: -4°   Ceiling: 3500
Heat Index:   Visibility: 10mi
Dew Point: -2°   Wind: 21mph
Humidity: 76%   Direction: 290°WNW
Pressure: 29.49"   Gusts: 30mph
Location:  45.76°N, 105.11°W
Report Text: KBHK 230658Z AUTO 29018G26KT 10SM FEW018 BKN035 OVC055 02/M02 A2949 RMK AO2 PK WND 29026/0653 T00221017
Loading
Personal Weather Stations






























Interactive Weather Map New forecast layout! Learn more

10-Day Weather Forecast

Advertisements
Track Severe Weather on mobile